createdAt,value
2017-12-10T00:01:00.530Z,0
2017-12-10T00:01:46.134Z,0
2017-12-10T00:02:46.135Z,0
2017-12-10T00:03:46.138Z,0
2017-12-10T00:04:46.199Z,0
2017-12-10T00:05:46.193Z,0
2017-12-10T00:06:46.187Z,0
2017-12-10T00:07:46.206Z,0
2017-12-10T00:08:46.206Z,0
2017-12-10T00:09:46.234Z,0
2017-12-10T00:11:00.912Z,0
2017-12-10T00:11:46.262Z,0
2017-12-10T00:13:15.591Z,0
2017-12-10T00:13:46.397Z,0
2017-12-10T00:14:46.287Z,0
2017-12-10T00:15:46.040Z,0
2017-12-10T00:16:46.336Z,0
2017-12-10T00:17:46.311Z,0
2017-12-10T00:18:46.393Z,0
2017-12-10T00:19:46.405Z,0
2017-12-10T00:20:46.379Z,0
2017-12-10T00:21:46.397Z,0
2017-12-10T00:22:46.521Z,0
2017-12-10T00:23:46.438Z,0
2017-12-10T00:24:46.446Z,0
2017-12-10T00:25:46.183Z,0
2017-12-10T00:26:46.496Z,0
2017-12-10T00:27:46.485Z,0
2017-12-10T00:29:01.142Z,0
2017-12-10T00:29:46.518Z,0
2017-12-10T00:30:46.545Z,0
2017-12-10T00:31:46.544Z,0
2017-12-10T00:32:46.663Z,0
2017-12-10T00:34:00.961Z,0
2017-12-10T00:35:01.258Z,0
2017-12-10T00:35:46.337Z,0
2017-12-10T00:37:01.021Z,0
2017-12-10T00:37:46.607Z,0
2017-12-10T00:38:46.670Z,0
2017-12-10T00:40:01.304Z,0
2017-12-10T00:40:46.664Z,0
2017-12-10T00:41:46.694Z,0
2017-12-10T00:42:46.729Z,0
2017-12-10T00:43:46.725Z,0
2017-12-10T00:45:01.146Z,0
2017-12-10T00:45:46.753Z,0
2017-12-10T00:46:46.759Z,0
2017-12-10T00:47:46.769Z,0
2017-12-10T00:48:46.820Z,0
2017-12-10T00:49:46.567Z,0
2017-12-10T00:50:46.813Z,0
2017-12-10T00:52:01.500Z,0
2017-12-10T00:52:46.848Z,0
2017-12-10T00:53:46.854Z,0
2017-12-10T00:54:46.891Z,0
2017-12-10T00:55:46.889Z,0
2017-12-10T00:56:46.909Z,0
2017-12-10T00:57:46.666Z,0
2017-12-10T00:58:46.960Z,0
2017-12-10T01:00:01.602Z,0
2017-12-10T01:00:46.967Z,0
2017-12-10T01:01:46.999Z,0
2017-12-10T01:02:46.987Z,0
2017-12-10T01:03:46.761Z,0
2017-12-10T01:04:47.043Z,0
2017-12-10T01:05:47.027Z,0
2017-12-10T01:06:46.817Z,0
2017-12-10T01:07:46.787Z,0
2017-12-10T01:08:47.114Z,0
2017-12-10T01:09:47.070Z,0
2017-12-10T01:10:47.098Z,0
2017-12-10T01:11:46.884Z,0
2017-12-10T01:12:47.156Z,0
2017-12-10T01:13:47.175Z,0
2017-12-10T01:14:47.177Z,0
2017-12-10T01:15:47.184Z,0
2017-12-10T01:17:47.202Z,0
2017-12-10T01:19:47.214Z,0
2017-12-10T01:20:47.270Z,0
2017-12-10T01:21:47.263Z,0
2017-12-10T01:24:01.686Z,0
2017-12-10T01:24:47.304Z,0
2017-12-10T01:25:47.073Z,0
2017-12-10T01:26:47.331Z,0
2017-12-10T01:27:47.098Z,0
2017-12-10T01:28:47.404Z,0
2017-12-10T01:29:47.423Z,0
2017-12-10T01:30:47.445Z,0
2017-12-10T01:32:02.059Z,0
2017-12-10T01:33:02.110Z,0
2017-12-10T01:33:47.461Z,0
2017-12-10T01:35:01.883Z,0
2017-12-10T01:37:47.499Z,0
2017-12-10T01:38:47.503Z,0
2017-12-10T01:39:47.545Z,0
2017-12-10T01:40:47.531Z,0
2017-12-10T01:41:47.532Z,0
2017-12-10T01:43:47.600Z,0
2017-12-10T01:44:47.656Z,0
2017-12-10T01:45:47.345Z,0
2017-12-10T01:46:47.668Z,0
2017-12-10T01:48:02.297Z,0
2017-12-10T01:48:47.668Z,0
2017-12-10T01:49:47.707Z,0
2017-12-10T01:50:47.712Z,0
2017-12-10T01:51:47.700Z,0
2017-12-10T01:52:47.706Z,0
2017-12-10T01:53:47.736Z,0
2017-12-10T01:55:02.390Z,0
2017-12-10T01:55:47.749Z,0
2017-12-10T01:56:47.756Z,0
2017-12-10T01:57:47.808Z,0
2017-12-10T01:58:47.782Z,0
2017-12-10T01:59:47.784Z,0
2017-12-10T02:00:47.593Z,0
2017-12-10T02:02:47.828Z,0
2017-12-10T02:04:47.892Z,0
2017-12-10T02:05:47.920Z,0
2017-12-10T02:06:47.899Z,0
2017-12-10T02:07:47.940Z,0
2017-12-10T02:09:02.618Z,0
2017-12-10T02:09:48.058Z,0
2017-12-10T02:10:47.978Z,0
2017-12-10T02:11:47.983Z,0
2017-12-10T02:12:47.815Z,0
2017-12-10T02:13:47.759Z,0
2017-12-10T02:15:02.672Z,0
2017-12-10T02:15:48.053Z,0
2017-12-10T02:16:48.045Z,0
2017-12-10T02:17:47.824Z,0
2017-12-10T02:18:47.814Z,0
2017-12-10T02:20:02.765Z,0
2017-12-10T02:21:02.766Z,0
2017-12-10T02:21:48.159Z,0
2017-12-10T02:22:47.869Z,0
2017-12-10T02:23:48.148Z,0
2017-12-10T02:24:48.157Z,0
2017-12-10T02:25:48.172Z,0
2017-12-10T02:27:48.224Z,0
2017-12-10T02:28:48.245Z,0
2017-12-10T02:29:48.249Z,0
2017-12-10T02:30:48.264Z,0
2017-12-10T02:31:48.267Z,0
2017-12-10T02:33:48.305Z,0
2017-12-10T02:35:17.624Z,0
2017-12-10T02:35:48.336Z,0
2017-12-10T02:36:48.342Z,0
2017-12-10T02:38:02.758Z,0
2017-12-10T02:38:48.368Z,0
2017-12-10T02:39:48.407Z,0
2017-12-10T02:40:48.420Z,0
2017-12-10T02:41:48.393Z,0
2017-12-10T02:42:48.457Z,0
2017-12-10T02:43:48.447Z,0
2017-12-10T02:44:48.441Z,0
2017-12-10T02:45:48.493Z,0
2017-12-10T02:46:48.462Z,0
2017-12-10T02:49:02.909Z,0
2017-12-10T02:50:03.205Z,0
2017-12-10T02:50:48.535Z,0
2017-12-10T02:51:48.556Z,0
2017-12-10T02:52:48.313Z,0
2017-12-10T02:53:48.586Z,0
2017-12-10T02:54:48.575Z,0
2017-12-10T02:55:48.617Z,0
2017-12-10T02:56:48.611Z,0
2017-12-10T02:59:03.314Z,0
2017-12-10T02:59:48.632Z,0
2017-12-10T03:00:48.667Z,0
2017-12-10T03:01:48.698Z,0
2017-12-10T03:02:48.737Z,0
2017-12-10T03:03:48.707Z,0
2017-12-10T03:04:48.758Z,0
2017-12-10T03:05:48.752Z,0
2017-12-10T03:07:03.168Z,0
2017-12-10T03:07:48.507Z,0
2017-12-10T03:09:03.469Z,0
2017-12-10T03:09:48.793Z,0
2017-12-10T03:10:48.577Z,0
2017-12-10T03:12:03.509Z,0
2017-12-10T03:12:48.602Z,0
2017-12-10T03:13:48.859Z,0
2017-12-10T03:14:48.609Z,0
2017-12-10T03:15:48.898Z,0
2017-12-10T03:16:48.643Z,0
2017-12-10T03:17:48.926Z,0
2017-12-10T03:19:03.601Z,0
2017-12-10T03:19:48.924Z,0
2017-12-10T03:21:03.370Z,0
2017-12-10T03:22:03.604Z,0
2017-12-10T03:23:18.293Z,0
2017-12-10T03:23:48.733Z,0
2017-12-10T03:24:49.020Z,0
2017-12-10T03:25:49.044Z,0
2017-12-10T03:27:03.712Z,0
2017-12-10T03:27:49.091Z,0
2017-12-10T03:28:48.835Z,0
2017-12-10T03:29:48.564Z,0
2017-12-10T03:30:49.099Z,0
2017-12-10T03:31:49.105Z,0
2017-12-10T03:32:49.188Z,0
2017-12-10T03:34:03.295Z,0
2017-12-10T03:34:49.135Z,0
2017-12-10T03:35:49.176Z,0
2017-12-10T03:36:49.185Z,0
2017-12-10T03:37:49.207Z,0
2017-12-10T03:39:03.865Z,0
2017-12-10T03:39:49.233Z,0
2017-12-10T03:40:49.212Z,0
2017-12-10T03:42:03.910Z,0
2017-12-10T03:42:49.034Z,0
2017-12-10T03:44:03.940Z,0
2017-12-10T03:44:49.259Z,0
2017-12-10T03:46:49.336Z,0
2017-12-10T03:48:03.994Z,0
2017-12-10T03:48:49.351Z,0
2017-12-10T03:49:49.102Z,0
2017-12-10T03:50:49.395Z,0
2017-12-10T03:51:49.358Z,0
2017-12-10T03:52:49.433Z,0
2017-12-10T03:53:49.431Z,0
2017-12-10T03:55:04.111Z,0
2017-12-10T03:55:49.445Z,0
2017-12-10T03:56:49.469Z,0
2017-12-10T03:57:49.220Z,0
2017-12-10T03:58:49.474Z,0
2017-12-10T03:59:49.495Z,0
2017-12-10T04:01:49.517Z,0
2017-12-10T04:02:49.545Z,0
2017-12-10T04:04:04.216Z,0
2017-12-10T04:04:49.643Z,0
2017-12-10T04:05:49.582Z,0
2017-12-10T04:06:49.061Z,0
2017-12-10T04:07:49.336Z,0
2017-12-10T04:09:04.281Z,0
2017-12-10T04:10:04.294Z,0
2017-12-10T04:10:49.726Z,0
2017-12-10T04:11:49.435Z,0
2017-12-10T04:13:04.335Z,0
2017-12-10T04:13:49.462Z,0
2017-12-10T04:14:49.727Z,0
2017-12-10T04:15:49.737Z,0
2017-12-10T04:16:49.745Z,0
2017-12-10T04:17:49.782Z,0
2017-12-10T04:18:49.535Z,0
2017-12-10T04:19:49.514Z,0
2017-12-10T04:20:49.797Z,0
2017-12-10T04:21:49.797Z,0
2017-12-10T04:22:49.834Z,0
2017-12-10T04:23:49.805Z,0
2017-12-10T04:24:49.599Z,0
2017-12-10T04:25:49.328Z,0
2017-12-10T04:29:04.541Z,0
2017-12-10T04:29:49.916Z,0
2017-12-10T04:30:49.947Z,0
2017-12-10T04:31:49.934Z,0
2017-12-10T04:32:49.948Z,0
2017-12-10T04:33:49.958Z,0
2017-12-10T04:35:49.982Z,0
2017-12-10T04:36:50.029Z,0
2017-12-10T04:37:49.769Z,0
2017-12-10T04:39:04.702Z,0
2017-12-10T04:39:50.074Z,0
2017-12-10T04:42:04.729Z,0
2017-12-10T04:43:04.752Z,0
2017-12-10T04:43:50.105Z,0
2017-12-10T04:44:49.839Z,0
2017-12-10T04:45:50.122Z,0
2017-12-10T04:46:50.140Z,0
2017-12-10T04:47:49.898Z,0
2017-12-10T04:48:50.155Z,0
2017-12-10T04:50:04.848Z,0
2017-12-10T04:50:50.221Z,0
2017-12-10T04:51:50.203Z,0
2017-12-10T04:52:50.235Z,0
2017-12-10T04:53:50.240Z,0
2017-12-10T04:54:50.264Z,0
2017-12-10T04:55:50.238Z,0
2017-12-10T04:56:50.265Z,0
2017-12-10T04:58:04.983Z,0
2017-12-10T04:58:50.286Z,0
2017-12-10T05:00:50.094Z,0
2017-12-10T05:01:50.339Z,0
2017-12-10T05:02:50.369Z,0
2017-12-10T05:03:50.380Z,0
2017-12-10T05:04:50.416Z,0
2017-12-10T05:05:50.426Z,0
2017-12-10T05:06:50.482Z,0
2017-12-10T05:07:50.442Z,0
2017-12-10T05:08:50.427Z,0
2017-12-10T05:11:04.881Z,0
2017-12-10T05:12:05.137Z,0
2017-12-10T05:12:50.472Z,0
2017-12-10T05:14:04.922Z,0
2017-12-10T05:14:50.517Z,0
2017-12-10T05:15:50.559Z,0
2017-12-10T05:16:50.571Z,0
2017-12-10T05:17:50.591Z,0
2017-12-10T05:18:50.568Z,0
2017-12-10T05:19:50.564Z,0
2017-12-10T05:21:05.265Z,0
2017-12-10T05:21:50.589Z,0
2017-12-10T05:23:50.636Z,0
2017-12-10T05:24:50.650Z,0
2017-12-10T05:25:50.680Z,0
2017-12-10T05:27:50.713Z,0
2017-12-10T05:28:50.712Z,0
2017-12-10T05:30:05.133Z,0
2017-12-10T05:30:50.753Z,0
2017-12-10T05:31:50.741Z,0
2017-12-10T05:33:05.452Z,0
2017-12-10T05:34:05.457Z,0
2017-12-10T05:34:50.807Z,0
2017-12-10T05:35:50.817Z,0
2017-12-10T05:36:50.816Z,0
2017-12-10T05:37:50.846Z,0
2017-12-10T05:38:50.863Z,0
2017-12-10T05:39:50.917Z,0
2017-12-10T05:40:50.894Z,0
2017-12-10T05:41:50.362Z,0
2017-12-10T05:42:50.646Z,0
2017-12-10T05:43:50.923Z,0
2017-12-10T05:45:05.606Z,0
2017-12-10T05:46:05.608Z,0
2017-12-10T05:46:50.947Z,0
2017-12-10T05:47:51.022Z,0
2017-12-10T05:48:50.984Z,0
2017-12-10T05:49:51.012Z,0
2017-12-10T05:50:50.781Z,0
2017-12-10T05:51:51.010Z,0
2017-12-10T05:53:51.046Z,0
2017-12-10T05:54:51.075Z,0
2017-12-10T05:55:51.092Z,0
2017-12-10T05:56:50.556Z,0
2017-12-10T05:57:51.141Z,0
2017-12-10T05:58:51.138Z,0
2017-12-10T05:59:50.894Z,0
2017-12-10T06:00:51.159Z,0
2017-12-10T06:01:51.171Z,0
2017-12-10T06:04:05.857Z,0
2017-12-10T06:04:51.240Z,0
2017-12-10T06:06:51.270Z,0
2017-12-10T06:07:51.256Z,0
2017-12-10T06:09:05.903Z,0
2017-12-10T06:09:51.284Z,0
2017-12-10T06:10:51.294Z,0
2017-12-10T06:11:51.299Z,0
2017-12-10T06:12:51.321Z,0
2017-12-10T06:13:51.341Z,0
2017-12-10T06:14:51.333Z,0
2017-12-10T06:16:06.034Z,0
2017-12-10T06:17:06.050Z,0
2017-12-10T06:17:51.381Z,0
2017-12-10T06:18:51.414Z,0
2017-12-10T06:19:51.421Z,0
2017-12-10T06:21:06.074Z,0
2017-12-10T06:22:06.077Z,0
2017-12-10T06:23:06.109Z,0
2017-12-10T06:23:51.473Z,0
2017-12-10T06:24:51.445Z,0
2017-12-10T06:25:51.495Z,0
2017-12-10T06:26:51.510Z,0
2017-12-10T06:27:51.655Z,0
2017-12-10T06:28:51.569Z,0
2017-12-10T06:29:51.555Z,0
2017-12-10T06:30:51.539Z,0
2017-12-10T06:31:51.604Z,0
2017-12-10T06:33:20.890Z,0
2017-12-10T06:33:51.611Z,4
2017-12-10T06:36:06.307Z,0
2017-12-10T06:36:51.630Z,0
2017-12-10T06:37:51.656Z,4
2017-12-10T06:38:51.664Z,4
2017-12-10T06:39:51.648Z,0
2017-12-10T06:40:51.706Z,4
2017-12-10T06:41:51.740Z,4
2017-12-10T06:43:06.108Z,4
2017-12-10T06:43:51.740Z,8
2017-12-10T06:44:51.835Z,8
2017-12-10T06:45:51.777Z,8
2017-12-10T06:46:51.762Z,8
2017-12-10T06:47:51.795Z,8
2017-12-10T06:49:06.481Z,12
2017-12-10T06:49:51.825Z,12
2017-12-10T06:51:06.478Z,16
2017-12-10T06:51:51.570Z,16
2017-12-10T06:52:51.868Z,20
2017-12-10T06:53:51.868Z,20
2017-12-10T06:54:51.887Z,20
2017-12-10T06:55:51.938Z,24
2017-12-10T06:56:51.946Z,28
2017-12-10T06:57:51.946Z,32
2017-12-10T06:59:06.635Z,40
2017-12-10T06:59:52.056Z,44
2017-12-10T07:00:51.969Z,48
2017-12-10T07:01:51.951Z,60
2017-12-10T07:03:51.991Z,72
2017-12-10T07:05:06.696Z,80
2017-12-10T07:06:06.690Z,84
2017-12-10T07:06:52.041Z,88
2017-12-10T07:07:52.068Z,96
2017-12-10T07:08:52.129Z,104
2017-12-10T07:09:52.086Z,108
2017-12-10T07:10:52.107Z,116
2017-12-10T07:11:52.132Z,128
2017-12-10T07:12:52.122Z,144
2017-12-10T07:13:52.145Z,160
2017-12-10T07:14:52.188Z,172
2017-12-10T07:15:52.201Z,188
2017-12-10T07:16:52.166Z,204
2017-12-10T07:17:52.203Z,220
2017-12-10T07:18:51.968Z,240
2017-12-10T07:20:06.632Z,268
2017-12-10T07:20:52.238Z,280
2017-12-10T07:22:52.259Z,308
2017-12-10T07:23:52.319Z,332
2017-12-10T07:24:52.373Z,348
2017-12-10T07:25:52.303Z,368
2017-12-10T07:26:52.324Z,384
2017-12-10T07:27:52.372Z,408
2017-12-10T07:28:52.402Z,428
2017-12-10T07:30:07.030Z,472
2017-12-10T07:30:52.407Z,512
2017-12-10T07:31:52.384Z,564
2017-12-10T07:32:52.176Z,596
2017-12-10T07:33:52.402Z,632
2017-12-10T07:35:52.465Z,712
2017-12-10T07:36:52.448Z,764
2017-12-10T07:37:52.479Z,820
2017-12-10T07:38:51.974Z,896
2017-12-10T07:39:52.256Z,964
2017-12-10T07:40:52.534Z,1048
2017-12-10T07:41:52.524Z,1148
2017-12-10T07:42:52.558Z,1272
2017-12-10T07:44:07.216Z,1364
2017-12-10T07:44:52.307Z,1368
2017-12-10T07:45:52.592Z,1372
2017-12-10T07:46:52.609Z,1412
2017-12-10T07:47:52.610Z,1496
2017-12-10T07:48:52.629Z,1620
2017-12-10T07:49:52.612Z,1816
2017-12-10T07:50:52.390Z,1976
2017-12-10T07:52:07.330Z,2104
2017-12-10T07:52:52.699Z,2164
2017-12-10T07:54:52.700Z,2292
2017-12-10T07:55:52.735Z,2380
2017-12-10T07:56:52.717Z,2432
2017-12-10T07:58:52.779Z,2196
2017-12-10T07:59:52.764Z,2100
2017-12-10T08:00:52.803Z,2084
2017-12-10T08:01:52.568Z,2148
2017-12-10T08:02:52.794Z,2188
2017-12-10T08:03:52.825Z,2188
2017-12-10T08:05:07.500Z,2116
2017-12-10T08:05:52.885Z,2068
2017-12-10T08:07:07.512Z,2012
2017-12-10T08:08:07.572Z,1948
2017-12-10T08:09:07.562Z,1896
2017-12-10T08:10:07.561Z,1876
2017-12-10T08:10:52.925Z,1876
2017-12-10T08:11:52.924Z,1908
2017-12-10T08:12:53.022Z,1968
2017-12-10T08:13:52.717Z,2036
2017-12-10T08:14:53.025Z,2084
2017-12-10T08:16:07.396Z,2120
2017-12-10T08:17:53.034Z,2172
2017-12-10T08:18:53.026Z,2160
2017-12-10T08:19:52.826Z,2172
2017-12-10T08:20:53.060Z,2208
2017-12-10T08:22:53.104Z,2168
2017-12-10T08:24:07.769Z,2252
2017-12-10T08:24:53.112Z,2352
2017-12-10T08:25:53.124Z,2476
2017-12-10T08:26:53.155Z,2536
2017-12-10T08:27:53.180Z,2576
2017-12-10T08:29:07.860Z,2656
2017-12-10T08:29:53.202Z,2708
2017-12-10T08:30:52.964Z,2760
2017-12-10T08:31:53.308Z,2832
2017-12-10T08:32:52.781Z,2924
2017-12-10T08:33:53.335Z,3048
2017-12-10T08:34:53.011Z,3200
2017-12-10T08:35:53.281Z,3332
2017-12-10T08:37:07.956Z,3452
2017-12-10T08:37:53.300Z,3512
2017-12-10T08:38:53.328Z,3536
2017-12-10T08:41:08.008Z,3372
2017-12-10T08:41:53.350Z,3336
2017-12-10T08:42:53.387Z,3364
2017-12-10T08:43:53.390Z,3452
2017-12-10T08:44:53.385Z,3556
2017-12-10T08:45:53.441Z,3664
2017-12-10T08:46:53.145Z,3748
2017-12-10T08:47:52.913Z,3828
2017-12-10T08:48:53.192Z,3904
2017-12-10T08:49:53.205Z,4040
2017-12-10T08:50:53.504Z,4316
2017-12-10T08:51:53.487Z,4744
2017-12-10T08:52:53.548Z,5004
2017-12-10T08:53:53.528Z,4996
2017-12-10T08:55:08.177Z,5252
2017-12-10T08:56:53.569Z,6024
2017-12-10T08:57:53.332Z,6064
2017-12-10T08:59:53.729Z,7136
2017-12-10T09:00:53.616Z,7336
2017-12-10T09:01:53.643Z,7520
2017-12-10T09:02:53.475Z,7560
2017-12-10T09:03:53.636Z,7628
2017-12-10T09:04:53.675Z,7556
2017-12-10T09:05:53.414Z,7528
2017-12-10T09:06:53.711Z,7544
2017-12-10T09:07:53.738Z,7584
2017-12-10T09:08:53.750Z,7608
2017-12-10T09:09:53.736Z,7572
2017-12-10T09:10:53.773Z,7500
2017-12-10T09:11:53.823Z,7440
2017-12-10T09:12:53.539Z,7400
2017-12-10T09:14:53.835Z,7436
2017-12-10T09:15:53.855Z,7512
2017-12-10T09:16:53.887Z,7532
2017-12-10T09:18:08.514Z,7600
2017-12-10T09:18:53.877Z,7604
2017-12-10T09:19:53.908Z,7652
2017-12-10T09:20:53.908Z,7052
2017-12-10T09:21:53.958Z,7252
2017-12-10T09:22:54.044Z,7620
2017-12-10T09:23:53.934Z,7732
2017-12-10T09:24:53.714Z,7644
2017-12-10T09:25:54.009Z,7596
2017-12-10T09:27:08.688Z,7528
2017-12-10T09:27:53.771Z,7416
2017-12-10T09:28:54.050Z,7576
2017-12-10T09:29:54.057Z,7720
2017-12-10T09:30:54.060Z,7748
2017-12-10T09:32:08.726Z,6792
2017-12-10T09:32:54.084Z,6760
2017-12-10T09:33:54.102Z,7420
2017-12-10T09:34:54.098Z,7528
2017-12-10T09:35:54.139Z,7920
2017-12-10T09:36:53.897Z,7956
2017-12-10T09:37:54.147Z,7228
2017-12-10T09:38:54.153Z,7116
2017-12-10T09:39:54.212Z,7788
2017-12-10T09:40:54.214Z,7768
2017-12-10T09:41:54.238Z,7736
2017-12-10T09:43:08.909Z,7572
2017-12-10T09:43:54.252Z,7440
2017-12-10T09:44:54.294Z,7232
2017-12-10T09:45:54.012Z,6956
2017-12-10T09:46:54.311Z,6572
2017-12-10T09:48:09.000Z,6236
2017-12-10T09:48:54.335Z,6340
2017-12-10T09:49:54.338Z,5624
2017-12-10T09:50:54.385Z,5688
2017-12-10T09:51:54.153Z,5492
2017-12-10T09:52:54.406Z,4948
2017-12-10T09:53:54.424Z,4960
2017-12-10T09:54:54.415Z,4988
2017-12-10T09:55:54.456Z,4880
2017-12-10T09:56:54.464Z,4684
2017-12-10T09:58:09.153Z,4596
2017-12-10T09:59:09.148Z,4472
2017-12-10T10:00:54.536Z,4212
2017-12-10T10:01:54.539Z,4072
2017-12-10T10:03:54.543Z,4096
2017-12-10T10:04:54.609Z,4024
2017-12-10T10:05:54.599Z,3976
2017-12-10T10:06:54.607Z,3904
2017-12-10T10:07:54.617Z,3848
2017-12-10T10:08:54.619Z,3760
2017-12-10T10:09:54.662Z,3684
2017-12-10T10:10:54.669Z,3540
2017-12-10T10:11:54.711Z,3504
2017-12-10T10:12:54.694Z,3444
2017-12-10T10:13:54.452Z,3496
2017-12-10T10:15:24.037Z,3472
2017-12-10T10:16:54.485Z,3360
2017-12-10T10:17:54.786Z,3252
2017-12-10T10:18:54.817Z,3120
2017-12-10T10:19:54.778Z,3180
2017-12-10T10:21:09.471Z,3220
2017-12-10T10:21:54.839Z,3240
2017-12-10T10:22:54.815Z,3268
2017-12-10T10:24:09.528Z,3476
2017-12-10T10:24:54.605Z,3600
2017-12-10T10:25:54.879Z,3668
2017-12-10T10:26:54.894Z,3708
2017-12-10T10:27:54.914Z,3724
2017-12-10T10:28:54.932Z,3640
2017-12-10T10:30:09.604Z,3808
2017-12-10T10:30:54.983Z,3780
2017-12-10T10:31:54.953Z,3952
2017-12-10T10:32:54.706Z,4032
2017-12-10T10:33:55.024Z,4100
2017-12-10T10:34:55.011Z,4176
2017-12-10T10:35:55.043Z,4092
2017-12-10T10:36:55.042Z,4132
2017-12-10T10:37:55.124Z,4340
2017-12-10T10:38:54.834Z,4340
2017-12-10T10:39:55.109Z,4488
2017-12-10T10:40:55.115Z,4832
2017-12-10T10:41:55.118Z,4816
2017-12-10T10:42:55.160Z,5000
2017-12-10T10:43:55.158Z,5192
2017-12-10T10:44:55.156Z,5492
2017-12-10T10:46:09.852Z,5368
2017-12-10T10:46:55.179Z,5132
2017-12-10T10:48:55.240Z,4668
2017-12-10T10:49:55.244Z,4756
2017-12-10T10:50:55.214Z,5000
2017-12-10T10:51:55.380Z,4776
2017-12-10T10:52:55.250Z,4716
2017-12-10T10:53:55.315Z,4640
2017-12-10T10:54:55.301Z,4868
2017-12-10T10:55:55.323Z,5164
2017-12-10T10:56:55.310Z,5540
2017-12-10T10:57:55.378Z,5308
2017-12-10T10:58:55.399Z,4956
2017-12-10T10:59:55.373Z,5204
2017-12-10T11:00:55.388Z,5248
2017-12-10T11:02:10.077Z,5940
2017-12-10T11:02:55.482Z,6312
2017-12-10T11:03:55.265Z,6328
2017-12-10T11:04:55.495Z,5856
2017-12-10T11:05:55.205Z,5336
2017-12-10T11:06:55.476Z,5196
2017-12-10T11:08:10.138Z,4896
2017-12-10T11:08:55.512Z,5076
2017-12-10T11:10:10.192Z,4800
2017-12-10T11:10:55.546Z,4368
2017-12-10T11:11:55.547Z,3968
2017-12-10T11:12:55.589Z,3976
2017-12-10T11:13:55.585Z,4644
2017-12-10T11:14:55.610Z,3872
2017-12-10T11:15:55.611Z,3220
2017-12-10T11:16:55.397Z,2964
2017-12-10T11:18:10.295Z,2784
2017-12-10T11:18:55.679Z,2920
2017-12-10T11:19:55.410Z,2964
2017-12-10T11:20:55.704Z,3052
2017-12-10T11:21:55.583Z,3188
2017-12-10T11:22:55.711Z,3112
2017-12-10T11:23:55.770Z,3228
2017-12-10T11:24:55.773Z,3196
2017-12-10T11:27:55.976Z,3504
2017-12-10T11:28:55.836Z,3448
2017-12-10T11:29:55.817Z,4052
2017-12-10T11:30:55.840Z,4024
2017-12-10T11:31:55.863Z,3836
2017-12-10T11:32:55.342Z,3776
2017-12-10T11:34:10.546Z,4128
2017-12-10T11:34:55.646Z,3892
2017-12-10T11:35:55.685Z,3924
2017-12-10T11:36:55.950Z,3708
2017-12-10T11:37:55.937Z,4080
2017-12-10T11:38:55.966Z,3480
2017-12-10T11:39:56.010Z,3752
2017-12-10T11:40:55.990Z,4276
2017-12-10T11:41:55.981Z,3740
2017-12-10T11:43:10.659Z,3616
2017-12-10T11:44:56.019Z,3340
2017-12-10T11:45:55.812Z,3956
2017-12-10T11:46:56.049Z,3672
2017-12-10T11:47:56.066Z,3204
2017-12-10T11:48:56.080Z,3300
2017-12-10T11:50:10.798Z,3196
2017-12-10T11:51:10.801Z,3064
2017-12-10T11:51:56.164Z,2932
2017-12-10T11:52:56.160Z,2776
2017-12-10T11:53:56.193Z,2648
2017-12-10T11:54:56.183Z,2664
2017-12-10T11:55:56.215Z,2692
2017-12-10T11:56:56.239Z,2748
2017-12-10T11:58:10.937Z,2812
2017-12-10T11:58:56.265Z,2892
2017-12-10T11:59:56.275Z,3092
2017-12-10T12:01:10.984Z,3472
2017-12-10T12:01:56.326Z,3672
2017-12-10T12:02:56.072Z,3868
2017-12-10T12:03:56.319Z,4132
2017-12-10T12:05:10.494Z,4424
2017-12-10T12:06:10.993Z,4628
2017-12-10T12:07:56.383Z,4892
2017-12-10T12:10:56.428Z,5004
2017-12-10T12:11:56.437Z,5136
2017-12-10T12:12:56.220Z,5344
2017-12-10T12:14:10.897Z,5280
2017-12-10T12:14:56.493Z,5048
2017-12-10T12:15:56.226Z,4836
2017-12-10T12:16:56.008Z,4788
2017-12-10T12:17:56.518Z,4788
2017-12-10T12:18:56.511Z,4660
2017-12-10T12:19:56.566Z,4548
2017-12-10T12:21:11.226Z,4376
2017-12-10T12:21:56.602Z,4248
2017-12-10T12:22:56.591Z,4128
2017-12-10T12:23:56.652Z,3992
2017-12-10T12:24:56.643Z,3880
2017-12-10T12:25:56.651Z,3796
2017-12-10T12:26:56.655Z,3720
2017-12-10T12:27:56.677Z,3728
2017-12-10T12:28:56.712Z,3712
2017-12-10T12:29:56.699Z,3644
2017-12-10T12:30:56.716Z,3592
2017-12-10T12:32:11.373Z,3528
2017-12-10T12:32:56.724Z,3428
2017-12-10T12:33:56.737Z,3288
2017-12-10T12:34:56.764Z,3192
2017-12-10T12:35:56.784Z,3088
2017-12-10T12:37:11.467Z,2916
2017-12-10T12:38:11.474Z,2816
2017-12-10T12:38:56.860Z,2768
2017-12-10T12:41:56.646Z,2596
2017-12-10T12:42:56.922Z,2536
2017-12-10T12:44:11.586Z,2496
2017-12-10T12:44:56.923Z,2484
2017-12-10T12:45:56.677Z,2480
2017-12-10T12:46:56.943Z,2488
2017-12-10T12:47:56.996Z,2492
2017-12-10T12:48:56.980Z,2480
2017-12-10T12:50:57.042Z,2452
2017-12-10T12:51:56.779Z,2440
2017-12-10T12:53:26.347Z,2408
2017-12-10T12:53:57.069Z,2400
2017-12-10T12:54:56.808Z,2372
2017-12-10T12:55:57.077Z,2340
2017-12-10T12:57:11.753Z,2300
2017-12-10T12:58:11.794Z,2276
2017-12-10T12:58:57.150Z,2264
2017-12-10T12:59:56.878Z,2248
2017-12-10T13:00:56.886Z,2248
2017-12-10T13:01:56.913Z,2248
2017-12-10T13:02:57.178Z,2264
2017-12-10T13:04:11.856Z,2276
2017-12-10T13:04:57.190Z,2284
2017-12-10T13:06:11.877Z,2276
2017-12-10T13:07:11.925Z,2260
2017-12-10T13:07:57.244Z,2240
2017-12-10T13:09:11.950Z,2200
2017-12-10T13:09:57.012Z,2172
2017-12-10T13:11:57.319Z,2076
2017-12-10T13:12:57.317Z,2028
2017-12-10T13:13:57.367Z,1976
2017-12-10T13:14:57.359Z,1920
2017-12-10T13:16:12.032Z,1860
2017-12-10T13:16:57.353Z,1820
2017-12-10T13:17:57.386Z,1776
2017-12-10T13:20:57.460Z,1688
2017-12-10T13:22:12.106Z,1664
2017-12-10T13:23:11.886Z,1644
2017-12-10T13:23:57.509Z,1624
2017-12-10T13:25:12.151Z,1592
2017-12-10T13:26:57.511Z,1532
2017-12-10T13:27:57.534Z,1500
2017-12-10T13:28:57.565Z,1468
2017-12-10T13:29:57.568Z,1432
2017-12-10T13:31:57.600Z,1340
2017-12-10T13:32:57.589Z,1296
2017-12-10T13:33:57.636Z,1248
2017-12-10T13:34:57.641Z,1208
2017-12-10T13:35:57.642Z,1176
2017-12-10T13:36:57.659Z,1140
2017-12-10T13:37:57.527Z,1100
2017-12-10T13:39:12.360Z,1060
2017-12-10T13:40:12.103Z,1028
2017-12-10T13:40:57.732Z,1004
2017-12-10T13:42:12.391Z,976
2017-12-10T13:42:57.736Z,964
2017-12-10T13:43:57.750Z,948
2017-12-10T13:44:57.789Z,924
2017-12-10T13:45:57.815Z,900
2017-12-10T13:46:57.947Z,880
2017-12-10T13:47:57.835Z,864
2017-12-10T13:48:57.833Z,836
2017-12-10T13:49:57.873Z,804
2017-12-10T13:50:57.601Z,772
2017-12-10T13:51:57.862Z,736
2017-12-10T13:52:57.878Z,700
2017-12-10T13:53:57.924Z,668
2017-12-10T13:54:57.902Z,636
2017-12-10T13:55:57.897Z,612
2017-12-10T13:56:57.689Z,588
2017-12-10T13:57:57.972Z,572
2017-12-10T13:59:12.380Z,552
2017-12-10T13:59:57.981Z,540
2017-12-10T14:00:57.987Z,528
2017-12-10T14:01:58.006Z,516
2017-12-10T14:02:58.014Z,504
2017-12-10T14:03:58.034Z,484
2017-12-10T14:04:58.052Z,472
2017-12-10T14:05:58.086Z,456
2017-12-10T14:06:58.069Z,444
2017-12-10T14:07:58.102Z,432
2017-12-10T14:08:58.079Z,420
2017-12-10T14:09:58.121Z,408
2017-12-10T14:10:58.122Z,388
2017-12-10T14:12:12.850Z,372
2017-12-10T14:12:58.171Z,360
2017-12-10T14:13:58.188Z,344
2017-12-10T14:14:58.180Z,328
2017-12-10T14:15:58.198Z,312
2017-12-10T14:16:58.227Z,304
2017-12-10T14:17:58.249Z,292
2017-12-10T14:19:58.248Z,272
2017-12-10T14:20:58.247Z,264
2017-12-10T14:21:58.321Z,252
2017-12-10T14:22:58.277Z,244
2017-12-10T14:23:58.346Z,232
2017-12-10T14:24:58.331Z,224
2017-12-10T14:25:58.327Z,208
2017-12-10T14:26:58.382Z,200
2017-12-10T14:28:13.050Z,184
2017-12-10T14:28:58.373Z,172
2017-12-10T14:29:58.392Z,160
2017-12-10T14:30:58.390Z,148
2017-12-10T14:31:58.438Z,136
2017-12-10T14:32:58.439Z,128
2017-12-10T14:34:58.215Z,108
2017-12-10T14:35:58.276Z,100
2017-12-10T14:36:58.507Z,96
2017-12-10T14:37:58.499Z,92
2017-12-10T14:38:58.483Z,80
2017-12-10T14:39:58.566Z,76
2017-12-10T14:40:58.298Z,72
2017-12-10T14:41:58.595Z,64
2017-12-10T14:42:58.589Z,60
2017-12-10T14:44:13.256Z,56
2017-12-10T14:44:58.603Z,56
2017-12-10T14:45:58.596Z,52
2017-12-10T14:48:13.314Z,44
2017-12-10T14:49:13.333Z,44
2017-12-10T14:49:58.660Z,44
2017-12-10T14:50:58.417Z,36
2017-12-10T14:51:58.728Z,36
2017-12-10T14:53:13.344Z,32
2017-12-10T14:53:58.750Z,32
2017-12-10T14:54:58.485Z,28
2017-12-10T14:55:58.766Z,24
2017-12-10T14:56:58.757Z,24
2017-12-10T14:57:58.764Z,20
2017-12-10T14:58:58.534Z,20
2017-12-10T15:00:13.479Z,20
2017-12-10T15:00:58.856Z,16